sensor_id;sensor_type;location;lat;lon;timestamp;P1;durP1;ratioP1;P2;durP2;ratioP2
7657;SDS011;8462;53.156;8.220;2022-11-15T00:02:06;19.97;;;11.90;;
7657;SDS011;8462;53.156;8.220;2022-11-15T00:05:12;20.43;;;11.33;;
7657;SDS011;8462;53.156;8.220;2022-11-15T00:08:17;20.20;;;11.43;;
7657;SDS011;8462;53.156;8.220;2022-11-15T00:11:21;21.13;;;12.20;;
7657;SDS011;8462;53.156;8.220;2022-11-15T00:14:26;21.50;;;12.20;;
7657;SDS011;8462;53.156;8.220;2022-11-15T00:17:31;20.97;;;11.00;;
7657;SDS011;8462;53.156;8.220;2022-11-15T00:20:37;18.93;;;11.97;;
7657;SDS011;8462;53.156;8.220;2022-11-15T00:23:42;18.83;;;11.60;;
7657;SDS011;8462;53.156;8.220;2022-11-15T00:26:46;19.13;;;10.93;;
7657;SDS011;8462;53.156;8.220;2022-11-15T00:29:52;20.03;;;12.40;;
7657;SDS011;8462;53.156;8.220;2022-11-15T00:32:56;16.03;;;10.47;;
7657;SDS011;8462;53.156;8.220;2022-11-15T00:36:06;18.47;;;11.57;;
7657;SDS011;8462;53.156;8.220;2022-11-15T00:39:13;17.93;;;10.33;;
7657;SDS011;8462;53.156;8.220;2022-11-15T00:42:17;17.57;;;10.97;;
7657;SDS011;8462;53.156;8.220;2022-11-15T00:45:21;17.93;;;11.43;;
7657;SDS011;8462;53.156;8.220;2022-11-15T00:48:26;19.60;;;11.57;;
7657;SDS011;8462;53.156;8.220;2022-11-15T00:51:32;17.50;;;11.17;;
7657;SDS011;8462;53.156;8.220;2022-11-15T00:54:36;16.93;;;11.07;;
7657;SDS011;8462;53.156;8.220;2022-11-15T00:57:41;19.43;;;11.30;;
7657;SDS011;8462;53.156;8.220;2022-11-15T01:00:46;16.87;;;10.83;;
7657;SDS011;8462;53.156;8.220;2022-11-15T01:03:50;16.13;;;10.13;;
7657;SDS011;8462;53.156;8.220;2022-11-15T01:06:56;24.63;;;11.77;;
7657;SDS011;8462;53.156;8.220;2022-11-15T01:10:00;20.60;;;11.83;;
7657;SDS011;8462;53.156;8.220;2022-11-15T01:13:04;17.87;;;10.53;;
7657;SDS011;8462;53.156;8.220;2022-11-15T01:16:09;21.07;;;11.80;;
7657;SDS011;8462;53.156;8.220;2022-11-15T01:19:16;18.70;;;11.00;;
7657;SDS011;8462;53.156;8.220;2022-11-15T01:22:22;19.80;;;11.37;;
7657;SDS011;8462;53.156;8.220;2022-11-15T01:25:27;21.40;;;11.67;;
7657;SDS011;8462;53.156;8.220;2022-11-15T01:28:32;18.20;;;10.93;;
7657;SDS011;8462;53.156;8.220;2022-11-15T01:31:37;20.27;;;11.87;;
7657;SDS011;8462;53.156;8.220;2022-11-15T01:34:41;19.77;;;12.00;;
7657;SDS011;8462;53.156;8.220;2022-11-15T01:40:55;17.83;;;11.63;;
7657;SDS011;8462;53.156;8.220;2022-11-15T01:47:38;17.63;;;11.50;;
7657;SDS011;8462;53.156;8.220;2022-11-15T01:50:46;20.77;;;12.30;;
7657;SDS011;8462;53.156;8.220;2022-11-15T01:53:54;19.63;;;11.50;;
7657;SDS011;8462;53.156;8.220;2022-11-15T01:57:03;23.17;;;12.50;;
7657;SDS011;8462;53.156;8.220;2022-11-15T02:00:11;20.97;;;12.33;;
7657;SDS011;8462;53.156;8.220;2022-11-15T02:03:16;27.57;;;12.63;;
7657;SDS011;8462;53.156;8.220;2022-11-15T02:06:21;21.73;;;12.27;;
7657;SDS011;8462;53.156;8.220;2022-11-15T02:09:27;25.07;;;13.83;;
7657;SDS011;8462;53.156;8.220;2022-11-15T02:12:32;21.67;;;12.73;;
7657;SDS011;8462;53.156;8.220;2022-11-15T02:15:38;22.03;;;13.33;;
7657;SDS011;8462;53.156;8.220;2022-11-15T02:18:49;22.00;;;12.13;;
7657;SDS011;8462;53.156;8.220;2022-11-15T02:22:01;21.17;;;12.13;;
7657;SDS011;8462;53.156;8.220;2022-11-15T02:25:27;23.53;;;13.33;;
7657;SDS011;8462;53.156;8.220;2022-11-15T02:28:44;22.40;;;12.13;;
7657;SDS011;8462;53.156;8.220;2022-11-15T02:31:57;19.63;;;12.30;;
7657;SDS011;8462;53.156;8.220;2022-11-15T02:35:09;23.67;;;13.40;;
7657;SDS011;8462;53.156;8.220;2022-11-15T02:38:22;20.47;;;11.53;;
7657;SDS011;8462;53.156;8.220;2022-11-15T02:41:35;17.50;;;11.17;;
7657;SDS011;8462;53.156;8.220;2022-11-15T02:44:45;18.83;;;12.23;;
7657;SDS011;8462;53.156;8.220;2022-11-15T02:47:51;20.10;;;12.13;;
7657;SDS011;8462;53.156;8.220;2022-11-15T02:51:00;19.50;;;11.33;;
7657;SDS011;8462;53.156;8.220;2022-11-15T02:54:05;24.63;;;12.53;;
7657;SDS011;8462;53.156;8.220;2022-11-15T02:57:11;19.37;;;11.17;;
7657;SDS011;8462;53.156;8.220;2022-11-15T03:00:19;17.43;;;10.93;;
7657;SDS011;8462;53.156;8.220;2022-11-15T03:03:36;20.80;;;11.73;;
7657;SDS011;8462;53.156;8.220;2022-11-15T03:06:55;18.40;;;10.50;;
7657;SDS011;8462;53.156;8.220;2022-11-15T03:10:06;19.27;;;10.80;;
7657;SDS011;8462;53.156;8.220;2022-11-15T03:13:19;16.13;;;10.67;;
7657;SDS011;8462;53.156;8.220;2022-11-15T03:16:29;19.57;;;11.30;;
7657;SDS011;8462;53.156;8.220;2022-11-15T03:19:40;17.87;;;10.60;;
7657;SDS011;8462;53.156;8.220;2022-11-15T03:22:48;17.30;;;10.63;;
7657;SDS011;8462;53.156;8.220;2022-11-15T03:25:54;17.93;;;11.47;;
7657;SDS011;8462;53.156;8.220;2022-11-15T03:29:01;23.43;;;11.67;;
7657;SDS011;8462;53.156;8.220;2022-11-15T03:32:09;17.97;;;10.97;;
7657;SDS011;8462;53.156;8.220;2022-11-15T03:35:19;21.73;;;11.90;;
7657;SDS011;8462;53.156;8.220;2022-11-15T03:38:34;17.17;;;10.23;;
7657;SDS011;8462;53.156;8.220;2022-11-15T03:41:39;17.27;;;9.83;;
7657;SDS011;8462;53.156;8.220;2022-11-15T03:44:52;19.27;;;10.57;;
7657;SDS011;8462;53.156;8.220;2022-11-15T03:48:02;15.87;;;10.87;;
7657;SDS011;8462;53.156;8.220;2022-11-15T03:51:14;20.73;;;10.97;;
7657;SDS011;8462;53.156;8.220;2022-11-15T03:54:18;22.43;;;11.77;;
7657;SDS011;8462;53.156;8.220;2022-11-15T03:57:23;23.53;;;10.50;;
7657;SDS011;8462;53.156;8.220;2022-11-15T04:00:27;20.00;;;11.03;;
7657;SDS011;8462;53.156;8.220;2022-11-15T04:03:32;19.83;;;11.80;;
7657;SDS011;8462;53.156;8.220;2022-11-15T04:06:38;20.50;;;11.07;;
7657;SDS011;8462;53.156;8.220;2022-11-15T04:09:42;19.43;;;11.40;;
7657;SDS011;8462;53.156;8.220;2022-11-15T04:13:01;19.33;;;11.00;;
7657;SDS011;8462;53.156;8.220;2022-11-15T04:16:06;18.93;;;9.97;;
7657;SDS011;8462;53.156;8.220;2022-11-15T04:19:11;17.30;;;10.77;;
7657;SDS011;8462;53.156;8.220;2022-11-15T04:22:35;19.10;;;10.00;;
7657;SDS011;8462;53.156;8.220;2022-11-15T04:25:58;17.43;;;10.13;;
7657;SDS011;8462;53.156;8.220;2022-11-15T04:29:04;17.07;;;10.27;;
7657;SDS011;8462;53.156;8.220;2022-11-15T04:32:27;17.83;;;9.80;;
7657;SDS011;8462;53.156;8.220;2022-11-15T04:35:31;17.00;;;10.40;;
7657;SDS011;8462;53.156;8.220;2022-11-15T04:38:37;15.57;;;9.63;;
7657;SDS011;8462;53.156;8.220;2022-11-15T04:41:41;17.27;;;8.77;;
7657;SDS011;8462;53.156;8.220;2022-11-15T04:44:46;14.27;;;9.50;;
7657;SDS011;8462;53.156;8.220;2022-11-15T04:47:50;17.63;;;10.57;;
7657;SDS011;8462;53.156;8.220;2022-11-15T04:50:55;17.87;;;9.43;;
7657;SDS011;8462;53.156;8.220;2022-11-15T04:54:01;16.40;;;9.17;;
7657;SDS011;8462;53.156;8.220;2022-11-15T04:57:05;19.20;;;10.17;;
7657;SDS011;8462;53.156;8.220;2022-11-15T05:00:10;16.20;;;9.83;;
7657;SDS011;8462;53.156;8.220;2022-11-15T05:03:16;14.77;;;9.17;;
7657;SDS011;8462;53.156;8.220;2022-11-15T05:06:39;14.50;;;9.33;;
7657;SDS011;8462;53.156;8.220;2022-11-15T05:09:45;12.00;;;8.97;;
7657;SDS011;8462;53.156;8.220;2022-11-15T05:12:49;15.83;;;8.90;;
7657;SDS011;8462;53.156;8.220;2022-11-15T05:15:53;14.90;;;8.87;;
7657;SDS011;8462;53.156;8.220;2022-11-15T05:18:58;14.80;;;9.13;;
7657;SDS011;8462;53.156;8.220;2022-11-15T05:22:02;13.37;;;8.37;;
7657;SDS011;8462;53.156;8.220;2022-11-15T05:25:08;13.57;;;7.70;;
7657;SDS011;8462;53.156;8.220;2022-11-15T05:28:12;12.37;;;8.40;;
7657;SDS011;8462;53.156;8.220;2022-11-15T05:34:26;13.37;;;8.27;;
7657;SDS011;8462;53.156;8.220;2022-11-15T05:37:31;14.10;;;7.93;;
7657;SDS011;8462;53.156;8.220;2022-11-15T05:40:36;11.90;;;8.00;;
7657;SDS011;8462;53.156;8.220;2022-11-15T05:43:41;11.73;;;7.10;;
7657;SDS011;8462;53.156;8.220;2022-11-15T05:46:46;14.90;;;8.30;;
7657;SDS011;8462;53.156;8.220;2022-11-15T05:49:52;12.40;;;7.60;;
7657;SDS011;8462;53.156;8.220;2022-11-15T05:52:58;14.23;;;8.30;;
7657;SDS011;8462;53.156;8.220;2022-11-15T05:56:05;12.23;;;8.03;;
7657;SDS011;8462;53.156;8.220;2022-11-15T05:59:11;12.57;;;7.30;;
7657;SDS011;8462;53.156;8.220;2022-11-15T06:05:24;11.97;;;6.87;;
7657;SDS011;8462;53.156;8.220;2022-11-15T06:08:28;10.17;;;6.67;;
7657;SDS011;8462;53.156;8.220;2022-11-15T06:11:33;11.00;;;7.87;;
7657;SDS011;8462;53.156;8.220;2022-11-15T06:14:39;12.53;;;7.47;;
7657;SDS011;8462;53.156;8.220;2022-11-15T06:17:43;11.60;;;7.03;;
7657;SDS011;8462;53.156;8.220;2022-11-15T06:20:48;10.33;;;7.17;;
7657;SDS011;8462;53.156;8.220;2022-11-15T06:23:52;13.00;;;7.43;;
7657;SDS011;8462;53.156;8.220;2022-11-15T06:26:58;10.17;;;7.60;;
7657;SDS011;8462;53.156;8.220;2022-11-15T06:30:02;11.67;;;6.87;;
7657;SDS011;8462;53.156;8.220;2022-11-15T06:33:07;10.83;;;7.30;;
7657;SDS011;8462;53.156;8.220;2022-11-15T06:36:12;8.77;;;6.23;;
7657;SDS011;8462;53.156;8.220;2022-11-15T06:39:19;10.00;;;6.27;;
7657;SDS011;8462;53.156;8.220;2022-11-15T06:42:24;16.47;;;10.33;;
7657;SDS011;8462;53.156;8.220;2022-11-15T06:45:29;11.77;;;6.57;;
7657;SDS011;8462;53.156;8.220;2022-11-15T06:48:34;9.90;;;7.00;;
7657;SDS011;8462;53.156;8.220;2022-11-15T06:51:39;17.40;;;8.60;;
7657;SDS011;8462;53.156;8.220;2022-11-15T06:54:44;14.80;;;8.20;;
7657;SDS011;8462;53.156;8.220;2022-11-15T06:57:51;13.23;;;7.53;;
7657;SDS011;8462;53.156;8.220;2022-11-15T07:00:58;12.77;;;8.67;;
7657;SDS011;8462;53.156;8.220;2022-11-15T07:04:03;11.97;;;6.70;;
7657;SDS011;8462;53.156;8.220;2022-11-15T07:07:09;11.30;;;6.40;;
7657;SDS011;8462;53.156;8.220;2022-11-15T07:10:13;13.60;;;7.33;;
7657;SDS011;8462;53.156;8.220;2022-11-15T07:13:19;10.17;;;7.07;;
7657;SDS011;8462;53.156;8.220;2022-11-15T07:16:27;9.73;;;6.33;;
7657;SDS011;8462;53.156;8.220;2022-11-15T07:19:31;14.17;;;7.53;;
7657;SDS011;8462;53.156;8.220;2022-11-15T07:22:36;11.10;;;7.77;;
7657;SDS011;8462;53.156;8.220;2022-11-15T07:25:41;12.97;;;7.70;;
7657;SDS011;8462;53.156;8.220;2022-11-15T07:28:46;10.57;;;6.90;;
7657;SDS011;8462;53.156;8.220;2022-11-15T07:31:51;12.87;;;6.80;;
7657;SDS011;8462;53.156;8.220;2022-11-15T07:34:55;13.93;;;7.17;;
7657;SDS011;8462;53.156;8.220;2022-11-15T07:38:01;9.83;;;6.67;;
7657;SDS011;8462;53.156;8.220;2022-11-15T07:41:07;12.07;;;6.60;;
7657;SDS011;8462;53.156;8.220;2022-11-15T07:44:13;11.60;;;7.10;;
7657;SDS011;8462;53.156;8.220;2022-11-15T07:47:17;9.83;;;6.10;;
7657;SDS011;8462;53.156;8.220;2022-11-15T07:50:22;12.07;;;7.10;;
7657;SDS011;8462;53.156;8.220;2022-11-15T07:53:27;11.17;;;6.90;;
7657;SDS011;8462;53.156;8.220;2022-11-15T07:56:32;11.33;;;7.50;;
7657;SDS011;8462;53.156;8.220;2022-11-15T07:59:37;13.63;;;6.57;;
7657;SDS011;8462;53.156;8.220;2022-11-15T08:02:42;8.80;;;6.67;;
7657;SDS011;8462;53.156;8.220;2022-11-15T08:05:49;8.40;;;6.50;;
7657;SDS011;8462;53.156;8.220;2022-11-15T08:08:55;10.70;;;6.37;;
7657;SDS011;8462;53.156;8.220;2022-11-15T08:11:59;11.87;;;7.70;;
7657;SDS011;8462;53.156;8.220;2022-11-15T08:15:06;17.10;;;8.57;;
7657;SDS011;8462;53.156;8.220;2022-11-15T08:18:12;8.80;;;6.17;;
7657;SDS011;8462;53.156;8.220;2022-11-15T08:21:20;7.93;;;6.50;;
7657;SDS011;8462;53.156;8.220;2022-11-15T08:24:25;11.27;;;7.33;;
7657;SDS011;8462;53.156;8.220;2022-11-15T08:27:31;11.17;;;6.30;;
7657;SDS011;8462;53.156;8.220;2022-11-15T08:30:37;9.17;;;6.53;;
7657;SDS011;8462;53.156;8.220;2022-11-15T08:33:45;10.43;;;6.67;;
7657;SDS011;8462;53.156;8.220;2022-11-15T08:36:49;9.87;;;6.30;;
7657;SDS011;8462;53.156;8.220;2022-11-15T08:39:54;11.13;;;6.73;;
7657;SDS011;8462;53.156;8.220;2022-11-15T08:46:15;8.90;;;6.73;;
7657;SDS011;8462;53.156;8.220;2022-11-15T08:49:20;9.00;;;6.33;;
7657;SDS011;8462;53.156;8.220;2022-11-15T08:52:25;7.37;;;5.50;;
7657;SDS011;8462;53.156;8.220;2022-11-15T08:55:30;9.07;;;5.83;;
7657;SDS011;8462;53.156;8.220;2022-11-15T08:58:35;10.27;;;5.93;;
7657;SDS011;8462;53.156;8.220;2022-11-15T09:01:41;8.27;;;6.80;;
7657;SDS011;8462;53.156;8.220;2022-11-15T09:04:47;9.20;;;6.50;;
7657;SDS011;8462;53.156;8.220;2022-11-15T09:07:52;15.43;;;6.97;;
7657;SDS011;8462;53.156;8.220;2022-11-15T09:10:57;11.67;;;7.03;;
7657;SDS011;8462;53.156;8.220;2022-11-15T09:14:02;11.73;;;7.53;;
7657;SDS011;8462;53.156;8.220;2022-11-15T09:17:08;8.60;;;6.43;;
7657;SDS011;8462;53.156;8.220;2022-11-15T09:20:13;10.43;;;6.93;;
7657;SDS011;8462;53.156;8.220;2022-11-15T09:23:18;12.43;;;7.43;;
7657;SDS011;8462;53.156;8.220;2022-11-15T09:26:22;7.63;;;5.80;;
7657;SDS011;8462;53.156;8.220;2022-11-15T09:29:27;9.50;;;6.53;;
7657;SDS011;8462;53.156;8.220;2022-11-15T09:32:33;9.03;;;6.57;;
7657;SDS011;8462;53.156;8.220;2022-11-15T09:35:38;12.80;;;7.43;;
7657;SDS011;8462;53.156;8.220;2022-11-15T09:38:43;11.60;;;6.60;;
7657;SDS011;8462;53.156;8.220;2022-11-15T09:41:54;10.60;;;6.83;;
7657;SDS011;8462;53.156;8.220;2022-11-15T09:45:17;11.33;;;7.13;;
7657;SDS011;8462;53.156;8.220;2022-11-15T09:48:41;11.67;;;7.53;;
7657;SDS011;8462;53.156;8.220;2022-11-15T09:51:58;14.10;;;8.10;;
7657;SDS011;8462;53.156;8.220;2022-11-15T09:54:46;11.07;;;7.20;;
7657;SDS011;8462;53.156;8.220;2022-11-15T09:57:37;10.90;;;6.97;;
7657;SDS011;8462;53.156;8.220;2022-11-15T10:00:29;10.20;;;6.90;;
7657;SDS011;8462;53.156;8.220;2022-11-15T10:03:20;11.60;;;6.83;;
7657;SDS011;8462;53.156;8.220;2022-11-15T10:06:19;9.87;;;6.20;;
7657;SDS011;8462;53.156;8.220;2022-11-15T10:09:11;9.10;;;6.37;;
7657;SDS011;8462;53.156;8.220;2022-11-15T10:14:56;9.03;;;6.10;;
7657;SDS011;8462;53.156;8.220;2022-11-15T10:21:02;6.57;;;5.60;;
7657;SDS011;8462;53.156;8.220;2022-11-15T10:23:59;10.47;;;7.23;;
7657;SDS011;8462;53.156;8.220;2022-11-15T10:26:46;7.00;;;5.57;;
7657;SDS011;8462;53.156;8.220;2022-11-15T10:29:32;10.30;;;5.47;;
7657;SDS011;8462;53.156;8.220;2022-11-15T10:32:18;9.67;;;6.13;;
7657;SDS011;8462;53.156;8.220;2022-11-15T10:35:15;8.93;;;5.77;;
7657;SDS011;8462;53.156;8.220;2022-11-15T10:38:04;9.23;;;5.80;;
7657;SDS011;8462;53.156;8.220;2022-11-15T10:40:52;12.47;;;6.23;;
7657;SDS011;8462;53.156;8.220;2022-11-15T10:44:02;7.03;;;5.87;;
7657;SDS011;8462;53.156;8.220;2022-11-15T10:50:28;9.17;;;5.87;;
7657;SDS011;8462;53.156;8.220;2022-11-15T10:53:18;8.83;;;5.40;;
7657;SDS011;8462;53.156;8.220;2022-11-15T10:56:15;6.53;;;5.63;;
7657;SDS011;8462;53.156;8.220;2022-11-15T10:59:13;8.30;;;5.53;;
7657;SDS011;8462;53.156;8.220;2022-11-15T11:02:02;11.27;;;6.43;;
7657;SDS011;8462;53.156;8.220;2022-11-15T11:05:25;10.17;;;5.63;;
7657;SDS011;8462;53.156;8.220;2022-11-15T11:08:22;9.63;;;5.53;;
7657;SDS011;8462;53.156;8.220;2022-11-15T11:11:08;7.20;;;4.80;;
7657;SDS011;8462;53.156;8.220;2022-11-15T11:13:55;6.83;;;5.60;;
7657;SDS011;8462;53.156;8.220;2022-11-15T11:16:59;9.37;;;6.00;;
7657;SDS011;8462;53.156;8.220;2022-11-15T11:19:52;5.93;;;4.77;;
7657;SDS011;8462;53.156;8.220;2022-11-15T11:22:47;6.63;;;4.80;;
7657;SDS011;8462;53.156;8.220;2022-11-15T11:25:44;7.90;;;4.80;;
7657;SDS011;8462;53.156;8.220;2022-11-15T11:28:38;8.27;;;4.67;;
7657;SDS011;8462;53.156;8.220;2022-11-15T11:31:32;5.50;;;4.50;;
7657;SDS011;8462;53.156;8.220;2022-11-15T11:34:34;7.57;;;4.70;;
7657;SDS011;8462;53.156;8.220;2022-11-15T11:37:30;7.83;;;5.27;;
7657;SDS011;8462;53.156;8.220;2022-11-15T11:40:27;5.43;;;4.93;;
7657;SDS011;8462;53.156;8.220;2022-11-15T11:43:17;7.13;;;4.17;;
7657;SDS011;8462;53.156;8.220;2022-11-15T11:46:23;5.87;;;4.30;;
7657;SDS011;8462;53.156;8.220;2022-11-15T11:49:24;6.17;;;4.80;;
7657;SDS011;8462;53.156;8.220;2022-11-15T11:52:16;5.43;;;4.30;;
7657;SDS011;8462;53.156;8.220;2022-11-15T11:55:05;7.23;;;4.17;;
7657;SDS011;8462;53.156;8.220;2022-11-15T11:58:02;6.27;;;4.00;;
7657;SDS011;8462;53.156;8.220;2022-11-15T12:00:55;5.97;;;4.03;;
7657;SDS011;8462;53.156;8.220;2022-11-15T12:03:48;5.77;;;4.40;;
7657;SDS011;8462;53.156;8.220;2022-11-15T12:06:38;5.10;;;3.93;;
7657;SDS011;8462;53.156;8.220;2022-11-15T12:09:30;4.53;;;3.37;;
7657;SDS011;8462;53.156;8.220;2022-11-15T12:12:22;5.80;;;4.10;;
7657;SDS011;8462;53.156;8.220;2022-11-15T12:15:14;5.20;;;3.50;;
7657;SDS011;8462;53.156;8.220;2022-11-15T12:18:02;4.00;;;3.13;;
7657;SDS011;8462;53.156;8.220;2022-11-15T12:20:52;6.00;;;3.67;;
7657;SDS011;8462;53.156;8.220;2022-11-15T12:23:42;5.70;;;3.27;;
7657;SDS011;8462;53.156;8.220;2022-11-15T12:26:32;3.63;;;3.33;;
7657;SDS011;8462;53.156;8.220;2022-11-15T12:29:23;5.23;;;3.53;;
7657;SDS011;8462;53.156;8.220;2022-11-15T12:32:24;6.53;;;3.63;;
7657;SDS011;8462;53.156;8.220;2022-11-15T12:35:20;3.93;;;3.53;;
7657;SDS011;8462;53.156;8.220;2022-11-15T12:38:11;4.00;;;3.23;;
7657;SDS011;8462;53.156;8.220;2022-11-15T12:41:13;5.30;;;3.60;;
7657;SDS011;8462;53.156;8.220;2022-11-15T12:44:01;3.70;;;2.80;;
7657;SDS011;8462;53.156;8.220;2022-11-15T12:47:01;3.07;;;2.73;;
7657;SDS011;8462;53.156;8.220;2022-11-15T12:49:49;4.43;;;3.33;;
7657;SDS011;8462;53.156;8.220;2022-11-15T12:52:35;3.13;;;2.73;;
7657;SDS011;8462;53.156;8.220;2022-11-15T12:55:32;4.70;;;2.90;;
7657;SDS011;8462;53.156;8.220;2022-11-15T12:58:26;3.90;;;2.60;;
7657;SDS011;8462;53.156;8.220;2022-11-15T13:04:32;4.07;;;3.07;;
7657;SDS011;8462;53.156;8.220;2022-11-15T13:10:40;5.03;;;2.83;;
7657;SDS011;8462;53.156;8.220;2022-11-15T13:13:41;4.70;;;3.40;;
7657;SDS011;8462;53.156;8.220;2022-11-15T13:16:28;3.70;;;3.30;;
7657;SDS011;8462;53.156;8.220;2022-11-15T13:19:15;2.73;;;2.53;;
7657;SDS011;8462;53.156;8.220;2022-11-15T13:22:04;3.33;;;3.03;;
7657;SDS011;8462;53.156;8.220;2022-11-15T13:25:14;4.93;;;3.23;;
7657;SDS011;8462;53.156;8.220;2022-11-15T13:28:09;2.50;;;2.20;;
7657;SDS011;8462;53.156;8.220;2022-11-15T13:30:57;3.13;;;2.83;;
7657;SDS011;8462;53.156;8.220;2022-11-15T13:33:43;2.97;;;2.67;;
7657;SDS011;8462;53.156;8.220;2022-11-15T13:36:30;3.70;;;2.57;;
7657;SDS011;8462;53.156;8.220;2022-11-15T13:39:25;2.63;;;2.43;;
7657;SDS011;8462;53.156;8.220;2022-11-15T13:42:14;2.83;;;2.60;;
7657;SDS011;8462;53.156;8.220;2022-11-15T13:45:04;5.57;;;2.43;;
7657;SDS011;8462;53.156;8.220;2022-11-15T13:47:58;3.30;;;2.30;;
7657;SDS011;8462;53.156;8.220;2022-11-15T13:50:48;4.27;;;2.30;;
7657;SDS011;8462;53.156;8.220;2022-11-15T13:53:33;3.80;;;2.90;;
7657;SDS011;8462;53.156;8.220;2022-11-15T13:56:22;2.07;;;1.87;;
7657;SDS011;8462;53.156;8.220;2022-11-15T13:59:08;3.90;;;2.07;;
7657;SDS011;8462;53.156;8.220;2022-11-15T14:01:56;3.10;;;2.47;;
7657;SDS011;8462;53.156;8.220;2022-11-15T14:04:46;4.27;;;1.87;;
7657;SDS011;8462;53.156;8.220;2022-11-15T14:07:36;1.90;;;1.73;;
7657;SDS011;8462;53.156;8.220;2022-11-15T14:10:26;2.70;;;2.27;;
7657;SDS011;8462;53.156;8.220;2022-11-15T14:13:26;2.30;;;2.10;;
7657;SDS011;8462;53.156;8.220;2022-11-15T14:16:13;4.67;;;2.10;;
7657;SDS011;8462;53.156;8.220;2022-11-15T14:19:06;2.10;;;1.90;;
7657;SDS011;8462;53.156;8.220;2022-11-15T14:22:07;2.63;;;2.20;;
7657;SDS011;8462;53.156;8.220;2022-11-15T14:25:06;3.37;;;2.33;;
7657;SDS011;8462;53.156;8.220;2022-11-15T14:31:17;2.20;;;2.00;;
7657;SDS011;8462;53.156;8.220;2022-11-15T14:34:03;3.50;;;2.20;;
7657;SDS011;8462;53.156;8.220;2022-11-15T14:36:50;1.93;;;1.70;;
7657;SDS011;8462;53.156;8.220;2022-11-15T14:39:36;3.53;;;2.37;;
7657;SDS011;8462;53.156;8.220;2022-11-15T14:42:22;2.53;;;2.10;;
7657;SDS011;8462;53.156;8.220;2022-11-15T14:45:09;3.53;;;2.40;;
7657;SDS011;8462;53.156;8.220;2022-11-15T14:47:58;3.20;;;2.20;;
7657;SDS011;8462;53.156;8.220;2022-11-15T14:50:43;2.87;;;1.90;;
7657;SDS011;8462;53.156;8.220;2022-11-15T14:53:30;2.93;;;2.40;;
7657;SDS011;8462;53.156;8.220;2022-11-15T14:56:16;3.23;;;2.20;;
7657;SDS011;8462;53.156;8.220;2022-11-15T14:59:01;5.27;;;4.13;;
7657;SDS011;8462;53.156;8.220;2022-11-15T15:01:47;4.93;;;2.70;;
7657;SDS011;8462;53.156;8.220;2022-11-15T15:04:32;3.50;;;1.67;;
7657;SDS011;8462;53.156;8.220;2022-11-15T15:07:18;3.33;;;1.70;;
7657;SDS011;8462;53.156;8.220;2022-11-15T15:10:05;4.87;;;2.07;;
7657;SDS011;8462;53.156;8.220;2022-11-15T15:12:51;3.27;;;2.07;;
7657;SDS011;8462;53.156;8.220;2022-11-15T15:15:37;3.27;;;1.90;;
7657;SDS011;8462;53.156;8.220;2022-11-15T15:18:22;5.67;;;2.10;;
7657;SDS011;8462;53.156;8.220;2022-11-15T15:21:13;5.50;;;4.33;;
7657;SDS011;8462;53.156;8.220;2022-11-15T15:24:05;5.77;;;3.10;;
7657;SDS011;8462;53.156;8.220;2022-11-15T15:26:52;4.33;;;2.37;;
7657;SDS011;8462;53.156;8.220;2022-11-15T15:29:37;3.23;;;2.33;;
7657;SDS011;8462;53.156;8.220;2022-11-15T15:32:23;3.10;;;2.07;;
7657;SDS011;8462;53.156;8.220;2022-11-15T15:35:11;3.73;;;2.07;;
7657;SDS011;8462;53.156;8.220;2022-11-15T15:37:58;4.23;;;2.03;;
7657;SDS011;8462;53.156;8.220;2022-11-15T15:40:44;3.83;;;2.00;;
7657;SDS011;8462;53.156;8.220;2022-11-15T15:43:32;3.77;;;2.00;;
7657;SDS011;8462;53.156;8.220;2022-11-15T15:46:18;3.57;;;2.00;;
7657;SDS011;8462;53.156;8.220;2022-11-15T15:49:07;3.93;;;2.27;;
7657;SDS011;8462;53.156;8.220;2022-11-15T15:51:54;4.23;;;2.50;;
7657;SDS011;8462;53.156;8.220;2022-11-15T15:54:40;3.47;;;2.30;;
7657;SDS011;8462;53.156;8.220;2022-11-15T15:57:26;3.93;;;2.70;;
7657;SDS011;8462;53.156;8.220;2022-11-15T16:00:13;4.07;;;2.60;;
7657;SDS011;8462;53.156;8.220;2022-11-15T16:03:00;2.97;;;2.50;;
7657;SDS011;8462;53.156;8.220;2022-11-15T16:05:45;3.20;;;2.20;;
7657;SDS011;8462;53.156;8.220;2022-11-15T16:08:31;4.30;;;2.33;;
7657;SDS011;8462;53.156;8.220;2022-11-15T16:11:18;3.63;;;2.57;;
7657;SDS011;8462;53.156;8.220;2022-11-15T16:14:07;4.73;;;2.40;;
7657;SDS011;8462;53.156;8.220;2022-11-15T16:16:54;5.13;;;3.03;;
7657;SDS011;8462;53.156;8.220;2022-11-15T16:19:39;3.40;;;2.60;;
7657;SDS011;8462;53.156;8.220;2022-11-15T16:22:25;3.47;;;2.20;;
7657;SDS011;8462;53.156;8.220;2022-11-15T16:25:13;3.70;;;2.33;;
7657;SDS011;8462;53.156;8.220;2022-11-15T16:27:58;5.07;;;2.20;;
7657;SDS011;8462;53.156;8.220;2022-11-15T16:30:44;3.27;;;2.93;;
7657;SDS011;8462;53.156;8.220;2022-11-15T16:33:32;4.30;;;2.40;;
7657;SDS011;8462;53.156;8.220;2022-11-15T16:36:19;4.53;;;2.67;;
7657;SDS011;8462;53.156;8.220;2022-11-15T16:39:08;4.03;;;2.50;;
7657;SDS011;8462;53.156;8.220;2022-11-15T16:41:59;3.07;;;2.37;;
7657;SDS011;8462;53.156;8.220;2022-11-15T16:44:46;4.07;;;2.90;;
7657;SDS011;8462;53.156;8.220;2022-11-15T16:47:31;4.53;;;2.70;;
7657;SDS011;8462;53.156;8.220;2022-11-15T16:50:22;3.77;;;2.70;;
7657;SDS011;8462;53.156;8.220;2022-11-15T16:53:09;6.20;;;2.73;;
7657;SDS011;8462;53.156;8.220;2022-11-15T16:56:01;3.03;;;2.57;;
7657;SDS011;8462;53.156;8.220;2022-11-15T16:58:48;4.30;;;2.50;;
7657;SDS011;8462;53.156;8.220;2022-11-15T17:01:35;3.30;;;2.30;;
7657;SDS011;8462;53.156;8.220;2022-11-15T17:04:31;3.17;;;2.10;;
7657;SDS011;8462;53.156;8.220;2022-11-15T17:07:18;4.23;;;2.63;;
7657;SDS011;8462;53.156;8.220;2022-11-15T17:10:04;2.87;;;2.40;;
7657;SDS011;8462;53.156;8.220;2022-11-15T17:12:51;3.33;;;2.23;;
7657;SDS011;8462;53.156;8.220;2022-11-15T17:15:39;3.23;;;2.73;;
7657;SDS011;8462;53.156;8.220;2022-11-15T17:18:25;3.10;;;2.80;;
7657;SDS011;8462;53.156;8.220;2022-11-15T17:21:12;4.37;;;2.10;;
7657;SDS011;8462;53.156;8.220;2022-11-15T17:24:02;3.37;;;2.50;;
7657;SDS011;8462;53.156;8.220;2022-11-15T17:26:47;4.10;;;2.37;;
7657;SDS011;8462;53.156;8.220;2022-11-15T17:29:33;3.37;;;2.57;;
7657;SDS011;8462;53.156;8.220;2022-11-15T17:32:19;3.93;;;2.73;;
7657;SDS011;8462;53.156;8.220;2022-11-15T17:35:04;4.03;;;2.50;;
7657;SDS011;8462;53.156;8.220;2022-11-15T17:37:51;4.17;;;2.90;;
7657;SDS011;8462;53.156;8.220;2022-11-15T17:40:37;5.13;;;2.97;;
7657;SDS011;8462;53.156;8.220;2022-11-15T17:43:23;4.50;;;3.20;;
7657;SDS011;8462;53.156;8.220;2022-11-15T17:46:10;4.33;;;3.23;;
7657;SDS011;8462;53.156;8.220;2022-11-15T17:48:57;5.77;;;3.43;;
7657;SDS011;8462;53.156;8.220;2022-11-15T17:51:43;4.43;;;3.23;;
7657;SDS011;8462;53.156;8.220;2022-11-15T17:54:29;5.00;;;3.40;;
7657;SDS011;8462;53.156;8.220;2022-11-15T17:57:16;3.30;;;2.90;;
7657;SDS011;8462;53.156;8.220;2022-11-15T18:00:02;5.90;;;3.47;;
7657;SDS011;8462;53.156;8.220;2022-11-15T18:02:49;4.33;;;3.33;;
7657;SDS011;8462;53.156;8.220;2022-11-15T18:05:35;7.43;;;4.10;;
7657;SDS011;8462;53.156;8.220;2022-11-15T18:08:21;6.47;;;3.70;;
7657;SDS011;8462;53.156;8.220;2022-11-15T18:11:08;6.30;;;3.87;;
7657;SDS011;8462;53.156;8.220;2022-11-15T18:13:56;4.47;;;3.87;;
7657;SDS011;8462;53.156;8.220;2022-11-15T18:16:43;6.30;;;4.20;;
7657;SDS011;8462;53.156;8.220;2022-11-15T18:19:28;5.63;;;3.90;;
7657;SDS011;8462;53.156;8.220;2022-11-15T18:22:14;6.13;;;3.77;;
7657;SDS011;8462;53.156;8.220;2022-11-15T18:25:02;5.03;;;3.77;;
7657;SDS011;8462;53.156;8.220;2022-11-15T18:27:49;7.03;;;4.03;;
7657;SDS011;8462;53.156;8.220;2022-11-15T18:30:39;4.80;;;3.70;;
7657;SDS011;8462;53.156;8.220;2022-11-15T18:33:25;3.77;;;3.03;;
7657;SDS011;8462;53.156;8.220;2022-11-15T18:36:11;5.90;;;3.60;;
7657;SDS011;8462;53.156;8.220;2022-11-15T18:39:00;6.13;;;4.30;;
7657;SDS011;8462;53.156;8.220;2022-11-15T18:41:47;3.47;;;2.77;;
7657;SDS011;8462;53.156;8.220;2022-11-15T18:44:33;7.10;;;4.30;;
7657;SDS011;8462;53.156;8.220;2022-11-15T18:47:20;5.27;;;3.83;;
7657;SDS011;8462;53.156;8.220;2022-11-15T18:50:05;5.83;;;3.73;;
7657;SDS011;8462;53.156;8.220;2022-11-15T18:52:52;5.40;;;3.83;;